Weather History for Eureka Airport, NV

Change the Weather History Date:

Friday, December 7, 2012

  Actual Average Record
Temperature  
Mean Temperature 32 °F -  
Max Temperature 46 °F - - ()
Min Temperature 17 °F - - ()
Degree Days  
Heating Degree Days 34    
Moisture  
Dew Point 19 °F    
Average Humidity 64    
Maximum Humidity 93    
Minimum Humidity 27    
Precipitation  
Precipitation 0.00 in - - ()
Sea Level Pressure  
Sea Level Pressure 30.11 in    
Wind  
Wind Speed 3 mph (SW)    
Max Wind Speed 10 mph    
Max Gust Speed 17 mph    
Visibility 10 miles    
Events      
T = Trace of Precipitation, MM = Missing Value Source: NWS Daily Summary

Daily Weather History Graph

Daily Weather History Graph

Search for Another Location

Airport:

Trip Planner

Search our weather history database for the weather conditions in past years. The results will help you decide how hot, cold, wet, or windy it might be!

Date:

Astronomy

Dec. 07, 2012 Rise Set
Actual Time 6:51 AM PST 4:19 PM PST
Civil Twilight 6:21 AM PST 4:49 PM PST
Nautical Twilight 5:47 AM PST 5:23 PM PST
Astronomical Twilight 5:15 AM PST 5:56 PM PST
Moon 12:16 AM PST (12/7) 12:18 PM PST (12/7)
Length of Visible Light 10h 28m
Length of Day
9h 28m
Last Quarter, 37% of the Moon is Illuminated
Dec 7
Last Quarter
Dec 13
New
Dec 19
First Quarter
Dec 28
Full
Jan 4
Last Quarter

Hourly Weather History & Observations

Time (PST) Temp. Windchill Dew Point Humidity Pressure Visibility Wind Dir Wind Speed Gust Speed Precip Events Conditions
12:00 AM 32.0 °F - 26.6 °F 80% 30.13 in 10.0 mi Calm Calm - N/A   Partly Cloudy
12:20 AM 32.0 °F - 26.6 °F 80% 30.13 in 10.0 mi Calm Calm - N/A   Clear
12:40 AM 28.4 °F 23.3 °F 24.8 °F 86% 30.13 in 10.0 mi South 4.6 mph - N/A   Clear
1:00 AM 26.6 °F 22.6 °F 23.0 °F 86% 30.12 in 10.0 mi SW 3.5 mph - N/A   Clear
1:20 AM 24.8 °F 19.1 °F 23.0 °F 93% 30.13 in 10.0 mi West 4.6 mph - N/A   Clear
1:40 AM 24.8 °F - 23.0 °F 93% 30.14 in 10.0 mi Calm Calm - N/A   Clear
2:00 AM 26.6 °F - 24.8 °F 93% 30.14 in 10.0 mi Calm Calm - N/A   Clear
2:20 AM 24.8 °F 17.9 °F 23.0 °F 93% 30.13 in 10.0 mi South 5.8 mph - N/A   Clear
2:40 AM 23.0 °F 18.4 °F 21.2 °F 93% 30.14 in 10.0 mi SSW 3.5 mph - N/A   Clear
3:20 AM 23.0 °F - 21.2 °F 93% 30.14 in 10.0 mi Calm Calm - N/A   Clear
3:40 AM 23.0 °F - 19.4 °F 86% 30.13 in 10.0 mi Calm Calm - N/A   Clear
4:00 AM 23.0 °F - 19.4 °F 86% 30.13 in 10.0 mi Calm Calm - N/A   Clear
4:20 AM 21.2 °F - 19.4 °F 93% 30.13 in 10.0 mi Calm Calm - N/A   Clear
4:40 AM 19.4 °F - 17.6 °F 93% 30.13 in 10.0 mi Calm Calm - N/A   Clear
5:00 AM 19.4 °F - 17.6 °F 93% 30.14 in 10.0 mi Calm Calm - N/A   Clear
5:20 AM 17.6 °F 10.7 °F 15.8 °F 93% 30.14 in 10.0 mi SW 4.6 mph - N/A   Clear
5:40 AM 17.6 °F - 15.8 °F 93% 30.15 in 10.0 mi Calm Calm - N/A   Clear
6:00 AM 19.4 °F 11.5 °F 15.8 °F 86% 30.15 in 10.0 mi SSW 5.8 mph - N/A   Clear
6:20 AM 19.4 °F 10.4 °F 17.6 °F 93% 30.15 in 10.0 mi SSW 6.9 mph - N/A   Clear
6:40 AM 21.2 °F 12.6 °F 19.4 °F 93% 30.15 in 10.0 mi SSW 6.9 mph - N/A   Clear
7:00 AM 21.2 °F 13.6 °F 17.6 °F 86% 30.15 in 10.0 mi South 5.8 mph - N/A   Clear
7:20 AM 23.0 °F 15.8 °F 19.4 °F 86% 30.15 in 10.0 mi SSW 5.8 mph - N/A   Clear
7:40 AM 24.8 °F 19.1 °F 23.0 °F 93% 30.15 in 10.0 mi South 4.6 mph - N/A   Clear
8:00 AM 26.6 °F 22.6 °F 24.8 °F 93% 30.16 in 10.0 mi SSE 3.5 mph - N/A   Clear
8:20 AM 30.2 °F 26.7 °F 28.4 °F 93% 30.16 in 10.0 mi South 3.5 mph - N/A   Clear
8:40 AM 32.0 °F 26.4 °F 28.4 °F 87% 30.17 in 10.0 mi SSW 5.8 mph - N/A   Clear
9:00 AM 32.0 °F 26.4 °F 28.4 °F 87% 30.16 in 10.0 mi WSW 5.8 mph - N/A   Clear
9:20 AM 35.6 °F 32.8 °F 28.4 °F 75% 30.17 in 10.0 mi SW 3.5 mph - N/A   Clear
9:40 AM 37.4 °F - 28.4 °F 70% 30.17 in 10.0 mi Calm Calm - N/A   Clear
10:00 AM 37.4 °F - 26.6 °F 65% 30.17 in 10.0 mi Calm Calm - N/A   Clear
10:20 AM 37.4 °F 34.9 °F 26.6 °F 65% 30.17 in 10.0 mi West 3.5 mph - N/A   Clear
10:40 AM 39.2 °F 33.6 °F 26.6 °F 61% 30.16 in 10.0 mi South 8.1 mph - N/A   Clear
11:00 AM 39.2 °F 35.9 °F 24.8 °F 56% 30.15 in 10.0 mi SW 4.6 mph - N/A   Clear
11:20 AM 41.0 °F - 23.0 °F 49% 30.15 in 10.0 mi Calm Calm - N/A   Clear
11:40 AM 42.8 °F 41.1 °F 23.0 °F 46% 30.14 in 10.0 mi East 3.5 mph - N/A   Clear
12:00 PM 42.8 °F 39.3 °F 23.0 °F 46% 30.13 in 10.0 mi SE 5.8 mph - N/A   Clear
12:20 PM 44.6 °F - 23.0 °F 43% 30.12 in 10.0 mi Calm Calm - N/A   Clear
12:40 PM 46.4 °F 42.4 °F 19.4 °F 34% 30.11 in 10.0 mi WNW 8.1 mph - N/A   Clear
1:00 PM 44.6 °F 41.4 °F 19.4 °F 37% 30.10 in 10.0 mi WSW 5.8 mph - N/A   Clear
1:20 PM 46.4 °F 41.5 °F 17.6 °F 32% 30.09 in 10.0 mi West 10.4 mph 17.3 mph N/A   Clear
1:40 PM 46.4 °F 43.5 °F 17.6 °F 32% 30.09 in 10.0 mi WNW 5.8 mph - N/A   Clear
2:00 PM 46.4 °F 42.4 °F 17.6 °F 32% 30.09 in 10.0 mi West 8.1 mph - N/A   Clear
2:20 PM 46.4 °F 42.4 °F 17.6 °F 32% 30.08 in 10.0 mi WNW 8.1 mph - N/A   Clear
2:40 PM 46.4 °F 42.9 °F 15.8 °F 29% 30.08 in 10.0 mi NW 6.9 mph - N/A   Clear
3:00 PM 46.4 °F 41.9 °F 14.0 °F 27% 30.08 in 10.0 mi NW 9.2 mph - N/A   Clear
3:20 PM 44.6 °F 41.4 °F 12.2 °F 27% 30.08 in 10.0 mi WNW 5.8 mph - N/A   Clear
3:40 PM 44.6 °F 40.7 °F 14.0 °F 29% 30.08 in 10.0 mi NW 6.9 mph - N/A   Clear
4:00 PM 41.0 °F 38.0 °F 15.8 °F 36% 30.08 in 10.0 mi NW 4.6 mph - N/A   Clear
4:20 PM 39.2 °F 37.0 °F 14.0 °F 36% 30.08 in 10.0 mi NW 3.5 mph - N/A   Clear
4:40 PM 35.6 °F - 15.8 °F 44% 30.08 in 10.0 mi Calm Calm - N/A   Clear
5:00 PM 35.6 °F 32.8 °F 15.8 °F 44% 30.08 in 10.0 mi NNW 3.5 mph - N/A   Clear
5:20 PM 32.0 °F 27.5 °F 15.8 °F 51% 30.08 in 10.0 mi WNW 4.6 mph - N/A   Clear
5:40 PM 32.0 °F 26.4 °F 15.8 °F 51% 30.08 in 10.0 mi South 5.8 mph - N/A   Clear
6:00 PM 32.0 °F 28.7 °F 17.6 °F 55% 30.08 in 10.0 mi South 3.5 mph - N/A   Clear
6:20 PM 28.4 °F 22.2 °F 17.6 °F 64% 30.08 in 10.0 mi SW 5.8 mph - N/A   Clear
7:00 PM 28.4 °F - 17.6 °F 64% 30.08 in 10.0 mi Calm Calm - N/A   Mostly Cloudy
7:20 PM 28.4 °F 24.6 °F 17.6 °F 64% 30.07 in 10.0 mi SW 3.5 mph - N/A   Scattered Clouds
7:40 PM 32.0 °F 25.6 °F 15.8 °F 51% 30.07 in 10.0 mi SW 6.9 mph - N/A   Scattered Clouds
8:00 PM 39.2 °F - 10.4 °F 31% 30.07 in 10.0 mi Calm Calm - N/A   Scattered Clouds
8:40 PM 32.0 °F 27.5 °F 14.0 °F 48% 30.07 in 10.0 mi SW 4.6 mph - N/A   Mostly Cloudy
9:00 PM 33.8 °F 30.8 °F 12.2 °F 41% 30.07 in 10.0 mi SSW 3.5 mph - N/A   Mostly Cloudy
9:20 PM 32.0 °F 27.5 °F 14.0 °F 48% 30.07 in 10.0 mi SW 4.6 mph - N/A   Scattered Clouds
9:40 PM 26.6 °F 22.6 °F 14.0 °F 59% 30.07 in 10.0 mi SSW 3.5 mph - N/A   Clear
10:00 PM 32.0 °F 27.5 °F 12.2 °F 44% 30.06 in 10.0 mi SSW 4.6 mph - N/A   Clear
10:20 PM 32.0 °F 27.5 °F 10.4 °F 41% 30.06 in 10.0 mi SSW 4.6 mph - N/A   Partly Cloudy
10:40 PM 26.6 °F 19.1 °F 14.0 °F 59% 30.06 in 10.0 mi SSE 6.9 mph - N/A   Clear
11:00 PM 24.8 °F 19.1 °F 14.0 °F 64% 30.06 in 10.0 mi South 4.6 mph - N/A   Clear
11:20 PM 26.6 °F 21.2 °F 12.2 °F 55% 30.06 in 10.0 mi SSW 4.6 mph - N/A   Clear
11:40 PM 23.0 °F 14.7 °F 12.2 °F 63% 30.05 in 10.0 mi ESE 6.9 mph - N/A   Clear